createdAt,value
2023-05-15T00:00:09.963Z,1.51
2023-05-15T00:01:11.044Z,1.47
2023-05-15T00:02:10.043Z,1.39
2023-05-15T00:03:11.171Z,1.58
2023-05-15T00:04:10.068Z,1.35
2023-05-15T00:05:10.166Z,1.40
2023-05-15T00:06:11.151Z,1.40
2023-05-15T00:07:11.164Z,1.29
2023-05-15T00:08:10.192Z,1.70
2023-05-15T00:09:11.206Z,1.15
2023-05-15T00:10:10.270Z,1.30
2023-05-15T00:11:11.299Z,1.33
2023-05-15T00:12:10.330Z,1.30
2023-05-15T00:13:11.416Z,1.40
2023-05-15T00:14:11.345Z,1.43
2023-05-15T00:15:11.398Z,1.27
2023-05-15T00:16:10.436Z,1.24
2023-05-15T00:17:11.489Z,1.31
2023-05-15T00:18:10.540Z,1.51
2023-05-15T00:19:10.600Z,1.48
2023-05-15T00:20:11.555Z,1.45
2023-05-15T00:21:11.703Z,1.76
2023-05-15T00:22:10.661Z,1.54
2023-05-15T00:23:11.686Z,1.31
2023-05-15T00:24:11.708Z,1.38
2023-05-15T00:25:11.742Z,1.30
2023-05-15T00:26:11.773Z,1.41
2023-05-15T00:27:11.816Z,1.62
2023-05-15T00:28:10.830Z,1.35
2023-05-15T00:29:10.977Z,1.49
2023-05-15T00:30:11.916Z,1.29
2023-05-15T00:31:11.975Z,1.46
2023-05-15T00:32:11.967Z,1.32
2023-05-15T00:33:11.023Z,1.25
2023-05-15T00:34:12.040Z,1.30
2023-05-15T00:35:12.092Z,1.33
2023-05-15T00:36:12.084Z,1.16
2023-05-15T00:37:11.134Z,1.46
2023-05-15T00:38:12.162Z,1.77
2023-05-15T00:39:12.191Z,1.31
2023-05-15T00:40:12.228Z,1.32
2023-05-15T00:41:11.225Z,1.42
2023-05-15T00:42:11.267Z,1.21
2023-05-15T00:43:12.308Z,1.30
2023-05-15T00:44:12.343Z,1.22
2023-05-15T00:45:12.372Z,1.31
2023-05-15T00:46:12.397Z,1.63
2023-05-15T00:47:12.547Z,1.43
2023-05-15T00:48:11.466Z,1.37
2023-05-15T00:49:12.520Z,1.21
2023-05-15T00:50:11.518Z,1.15
2023-05-15T00:51:12.567Z,1.91
2023-05-15T00:52:11.609Z,1.47
2023-05-15T00:53:11.636Z,1.52
2023-05-15T00:54:11.702Z,1.48
2023-05-15T00:55:11.696Z,1.55
2023-05-15T00:56:11.733Z,1.31
2023-05-15T00:57:12.773Z,1.70
2023-05-15T00:58:12.825Z,1.29
2023-05-15T00:59:12.867Z,1.51
2023-05-15T01:00:11.881Z,1.29
2023-05-15T01:01:12.971Z,1.41
2023-05-15T01:02:13.009Z,1.42
2023-05-15T01:03:12.096Z,1.64
2023-05-15T01:04:12.020Z,1.26
2023-05-15T01:05:12.287Z,1.28
2023-05-15T01:06:13.120Z,1.38
2023-05-15T01:07:12.170Z,1.47
2023-05-15T01:08:13.177Z,1.39
2023-05-15T01:09:12.202Z,1.38
2023-05-15T01:10:13.263Z,1.33
2023-05-15T01:11:13.265Z,1.21
2023-05-15T01:12:12.318Z,1.46
2023-05-15T01:13:13.370Z,1.37
2023-05-15T01:14:12.521Z,1.44
2023-05-15T01:15:12.426Z,1.21
2023-05-15T01:16:13.452Z,1.48
2023-05-15T01:17:12.987Z,1.26
2023-05-15T01:18:13.649Z,1.25
2023-05-15T01:19:12.553Z,1.17
2023-05-15T01:20:13.539Z,1.40
2023-05-15T01:21:13.546Z,1.60
2023-05-15T01:22:13.605Z,1.32
2023-05-15T01:23:12.631Z,1.29
2023-05-15T01:24:12.658Z,1.03
2023-05-15T01:25:13.698Z,1.58
2023-05-15T01:26:13.745Z,1.45
2023-05-15T01:27:13.775Z,1.42
2023-05-15T01:28:12.822Z,1.31
2023-05-15T01:29:13.878Z,1.68
2023-05-15T01:30:12.922Z,1.52
2023-05-15T01:31:13.936Z,1.34
2023-05-15T01:32:13.055Z,1.34
2023-05-15T01:33:13.073Z,1.24
2023-05-15T01:34:14.031Z,1.49
2023-05-15T01:35:13.214Z,1.14
2023-05-15T01:36:14.341Z,1.36
2023-05-15T01:37:13.137Z,1.15
2023-05-15T01:38:14.155Z,1.11
2023-05-15T01:39:14.177Z,1.09
2023-05-15T01:40:14.197Z,1.16
2023-05-15T01:41:14.246Z,1.15
2023-05-15T01:42:14.279Z,1.24
2023-05-15T01:43:13.322Z,1.39
2023-05-15T01:44:13.351Z,1.33
2023-05-15T01:45:13.366Z,1.38
2023-05-15T01:46:13.502Z,1.19
2023-05-15T01:47:13.441Z,1.38
2023-05-15T01:48:13.475Z,1.33
2023-05-15T01:49:14.516Z,1.11
2023-05-15T01:50:14.549Z,1.52
2023-05-15T01:51:14.562Z,1.43
2023-05-15T01:52:14.641Z,1.04
2023-05-15T01:53:13.626Z,1.45
2023-05-15T01:54:13.650Z,1.44
2023-05-15T01:55:13.671Z,1.54
2023-05-15T01:56:14.708Z,1.11
2023-05-15T01:57:14.782Z,1.32
2023-05-15T01:58:13.789Z,1.24
2023-05-15T01:59:13.797Z,1.25
2023-05-15T02:00:13.862Z,1.56
2023-05-15T02:01:14.897Z,1.38
2023-05-15T02:02:13.888Z,1.47
2023-05-15T02:03:14.124Z,1.42
2023-05-15T02:04:14.977Z,1.36
2023-05-15T02:05:15.019Z,1.49
2023-05-15T02:06:14.025Z,1.56
2023-05-15T02:07:14.064Z,1.07
2023-05-15T02:08:15.125Z,1.16
2023-05-15T02:09:15.128Z,1.24
2023-05-15T02:10:14.168Z,1.39
2023-05-15T02:11:15.184Z,1.27
2023-05-15T02:12:15.238Z,1.34
2023-05-15T02:13:15.528Z,1.42
2023-05-15T02:14:15.314Z,1.17
2023-05-15T02:15:14.389Z,1.19
2023-05-15T02:16:15.462Z,1.44
2023-05-15T02:17:15.407Z,2.07
2023-05-15T02:18:14.442Z,1.28
2023-05-15T02:19:15.596Z,1.27
2023-05-15T02:20:15.533Z,1.75
2023-05-15T02:21:15.554Z,1.47
2023-05-15T02:22:14.551Z,1.37
2023-05-15T02:23:15.644Z,1.29
2023-05-15T02:24:14.672Z,1.75
2023-05-15T02:25:15.682Z,1.35
2023-05-15T02:26:15.711Z,1.23
2023-05-15T02:27:15.781Z,1.46
2023-05-15T02:28:14.791Z,1.39
2023-05-15T02:29:15.854Z,1.52
2023-05-15T02:30:14.885Z,1.49
2023-05-15T02:31:15.948Z,0.92
2023-05-15T02:32:15.995Z,1.48
2023-05-15T02:33:14.991Z,1.02
2023-05-15T02:34:16.029Z,1.26
2023-05-15T02:35:16.053Z,1.32
2023-05-15T02:36:15.108Z,1.40
2023-05-15T02:37:16.119Z,1.27
2023-05-15T02:38:15.153Z,1.50
2023-05-15T02:39:16.208Z,1.57
2023-05-15T02:40:15.257Z,1.25
2023-05-15T02:41:16.330Z,1.32
2023-05-15T02:42:16.293Z,1.22
2023-05-15T02:43:16.364Z,1.32
2023-05-15T02:44:16.377Z,1.32
2023-05-15T02:45:16.416Z,1.33
2023-05-15T02:46:15.692Z,1.39
2023-05-15T02:47:16.498Z,1.48
2023-05-15T02:48:15.537Z,1.12
2023-05-15T02:49:15.585Z,1.52
2023-05-15T02:50:16.601Z,1.21
2023-05-15T02:51:16.680Z,0.91
2023-05-15T02:52:15.770Z,1.08
2023-05-15T02:53:16.721Z,0.93
2023-05-15T02:54:16.809Z,1.22
2023-05-15T02:55:16.872Z,1.07
2023-05-15T02:56:16.845Z,1.06
2023-05-15T02:57:15.894Z,1.03
2023-05-15T02:58:15.924Z,1.08
2023-05-15T02:59:15.966Z,1.40
2023-05-15T03:00:17.015Z,1.47
2023-05-15T03:01:17.073Z,1.07
2023-05-15T03:02:16.099Z,1.50
2023-05-15T03:03:16.143Z,1.40
2023-05-15T03:04:17.196Z,1.34
2023-05-15T03:05:17.183Z,1.40
2023-05-15T03:06:17.265Z,1.28
2023-05-15T03:07:17.266Z,1.33
2023-05-15T03:08:16.289Z,1.19
2023-05-15T03:09:16.366Z,1.19
2023-05-15T03:10:17.382Z,1.04
2023-05-15T03:11:17.447Z,0.96
2023-05-15T03:12:17.446Z,1.42
2023-05-15T03:13:16.497Z,1.17
2023-05-15T03:14:17.548Z,1.38
2023-05-15T03:15:16.547Z,1.41
2023-05-15T03:16:16.603Z,1.39
2023-05-15T03:17:16.879Z,1.13
2023-05-15T03:18:18.720Z,1.07
2023-05-15T03:19:17.804Z,1.14
2023-05-15T03:20:17.766Z,1.34
2023-05-15T03:21:17.788Z,1.06
2023-05-15T03:22:16.813Z,1.31
2023-05-15T03:23:17.871Z,1.44
2023-05-15T03:24:17.910Z,1.24
2023-05-15T03:25:17.966Z,1.19
2023-05-15T03:26:18.012Z,1.24
2023-05-15T03:27:18.037Z,1.19
2023-05-15T03:28:17.046Z,1.12
2023-05-15T03:29:18.091Z,1.36
2023-05-15T03:30:17.138Z,1.09
2023-05-15T03:31:17.225Z,0.94
2023-05-15T03:32:18.238Z,1.09
2023-05-15T03:33:18.247Z,1.04
2023-05-15T03:34:18.286Z,1.33
2023-05-15T03:35:18.336Z,1.12
2023-05-15T03:36:18.381Z,1.32
2023-05-15T03:37:17.423Z,1.13
2023-05-15T03:38:17.434Z,1.41
2023-05-15T03:39:18.489Z,1.03
2023-05-15T03:40:17.524Z,1.30
2023-05-15T03:41:17.555Z,1.23
2023-05-15T03:42:17.604Z,5.14
2023-05-15T03:43:18.687Z,1.39
2023-05-15T03:44:17.698Z,1.12
2023-05-15T03:45:17.743Z,1.15
2023-05-15T03:46:17.765Z,1.26
2023-05-15T03:47:17.793Z,1.20
2023-05-15T03:48:17.849Z,1.22
2023-05-15T03:49:18.897Z,1.09
2023-05-15T03:50:18.932Z,1.18
2023-05-15T03:51:17.999Z,1.56
2023-05-15T03:52:18.006Z,1.49
2023-05-15T03:53:18.042Z,1.10
2023-05-15T03:54:18.104Z,1.01
2023-05-15T03:55:18.137Z,1.17
2023-05-15T03:56:19.166Z,1.03
2023-05-15T03:57:18.226Z,1.23
2023-05-15T03:58:19.263Z,1.03
2023-05-15T03:59:18.339Z,1.09
2023-05-15T04:00:19.184Z,1.14
2023-05-15T04:01:19.391Z,0.87
2023-05-15T04:02:19.420Z,1.02
2023-05-15T04:03:19.539Z,1.01
2023-05-15T04:04:18.488Z,1.27
2023-05-15T04:05:18.669Z,1.33
2023-05-15T04:06:19.599Z,1.25
2023-05-15T04:07:18.620Z,1.27
2023-05-15T04:08:18.635Z,1.14
2023-05-15T04:09:19.672Z,0.97
2023-05-15T04:10:18.739Z,1.27
2023-05-15T04:11:19.758Z,1.37
2023-05-15T04:12:18.775Z,1.30
2023-05-15T04:13:18.826Z,1.09
2023-05-15T04:14:18.859Z,1.20
2023-05-15T04:15:18.909Z,1.18
2023-05-15T04:16:19.984Z,1.31
2023-05-15T04:17:20.078Z,1.21
2023-05-15T04:18:18.997Z,1.40
2023-05-15T04:19:20.177Z,0.69
2023-05-15T04:20:19.080Z,1.32
2023-05-15T04:21:20.171Z,1.13
2023-05-15T04:22:19.857Z,1.39
2023-05-15T04:23:20.192Z,0.96
2023-05-15T04:24:20.255Z,1.06
2023-05-15T04:25:19.302Z,0.90
2023-05-15T04:26:19.348Z,1.21
2023-05-15T04:27:20.382Z,0.98
2023-05-15T04:28:20.386Z,1.27
2023-05-15T04:29:20.456Z,1.50
2023-05-15T04:30:19.478Z,1.33
2023-05-15T04:31:19.590Z,1.12
2023-05-15T04:32:20.552Z,1.03
2023-05-15T04:33:19.592Z,1.13
2023-05-15T04:34:20.642Z,1.00
2023-05-15T04:35:20.679Z,1.27
2023-05-15T04:36:19.699Z,1.26
2023-05-15T04:37:20.784Z,1.15
2023-05-15T04:38:19.769Z,0.85
2023-05-15T04:39:20.813Z,1.19
2023-05-15T04:40:19.844Z,1.40
2023-05-15T04:41:20.958Z,1.17
2023-05-15T04:42:20.946Z,1.31
2023-05-15T04:43:19.996Z,0.82
2023-05-15T04:44:20.024Z,1.47
2023-05-15T04:45:20.073Z,1.04
2023-05-15T04:46:21.132Z,0.92
2023-05-15T04:47:20.221Z,0.76
2023-05-15T04:48:21.221Z,1.23
2023-05-15T04:49:21.266Z,0.93
2023-05-15T04:50:21.266Z,1.27
2023-05-15T04:51:20.339Z,0.77
2023-05-15T04:52:21.363Z,1.19
2023-05-15T04:53:21.410Z,1.24
2023-05-15T04:54:20.470Z,1.16
2023-05-15T04:55:21.550Z,1.24
2023-05-15T04:56:20.595Z,1.07
2023-05-15T04:57:21.634Z,1.16
2023-05-15T04:58:21.655Z,1.30
2023-05-15T04:59:21.697Z,1.24
2023-05-15T05:00:21.738Z,0.88
2023-05-15T05:01:21.888Z,1.07
2023-05-15T05:02:21.921Z,0.91
2023-05-15T05:03:21.958Z,1.09
2023-05-15T05:04:21.987Z,1.22
2023-05-15T05:05:21.984Z,1.06
2023-05-15T05:06:21.041Z,1.01
2023-05-15T05:07:22.121Z,1.18
2023-05-15T05:08:22.110Z,1.24
2023-05-15T05:09:21.191Z,1.32
2023-05-15T05:10:21.203Z,0.90
2023-05-15T05:11:22.234Z,0.91
2023-05-15T05:12:22.264Z,1.12
2023-05-15T05:13:21.324Z,1.23
2023-05-15T05:14:22.417Z,0.96
2023-05-15T05:15:21.422Z,1.26
2023-05-15T05:16:21.505Z,1.01
2023-05-15T05:17:21.484Z,1.28
2023-05-15T05:18:22.573Z,1.03
2023-05-15T05:19:22.587Z,1.54
2023-05-15T05:20:21.655Z,0.98
2023-05-15T05:21:22.689Z,1.01
2023-05-15T05:22:22.721Z,1.09
2023-05-15T05:23:22.749Z,1.27
2023-05-15T05:24:22.801Z,1.30
2023-05-15T05:25:23.026Z,1.08
2023-05-15T05:26:21.892Z,1.02
2023-05-15T05:27:22.952Z,1.07
2023-05-15T05:28:21.938Z,1.04
2023-05-15T05:29:22.993Z,0.99
2023-05-15T05:30:22.061Z,1.73
2023-05-15T05:31:23.208Z,1.08
2023-05-15T05:32:23.123Z,1.41
2023-05-15T05:33:23.205Z,1.32
2023-05-15T05:34:22.308Z,1.60
2023-05-15T05:35:23.367Z,1.39
2023-05-15T05:36:22.193Z,1.30
2023-05-15T05:37:22.203Z,1.25
2023-05-15T05:38:22.206Z,1.32
2023-05-15T05:39:22.226Z,1.23
2023-05-15T05:40:23.252Z,1.28
2023-05-15T05:41:22.402Z,0.98
2023-05-15T05:42:23.358Z,1.68
2023-05-15T05:43:23.352Z,1.74
2023-05-15T05:44:22.551Z,1.41
2023-05-15T05:45:22.468Z,1.20
2023-05-15T05:46:23.529Z,1.51
2023-05-15T05:47:23.697Z,1.20
2023-05-15T05:48:23.600Z,1.43
2023-05-15T05:49:23.626Z,1.11
2023-05-15T05:50:22.765Z,1.66
2023-05-15T05:51:22.694Z,1.72
2023-05-15T05:52:23.736Z,1.34
2023-05-15T05:53:22.709Z,1.53
2023-05-15T05:54:22.739Z,1.53
2023-05-15T05:55:24.322Z,1.63
2023-05-15T05:56:23.863Z,1.65
2023-05-15T05:57:23.849Z,1.60
2023-05-15T05:58:25.948Z,1.55
2023-05-15T05:59:24.617Z,1.62
2023-05-15T06:00:23.933Z,1.47
2023-05-15T06:01:23.641Z,1.89
2023-05-15T06:02:24.061Z,1.36
2023-05-15T06:03:23.897Z,2.25
2023-05-15T06:04:22.870Z,1.96
2023-05-15T06:05:23.017Z,1.85
2023-05-15T06:06:23.850Z,2.08
2023-05-15T06:07:23.833Z,1.97
2023-05-15T06:08:22.908Z,1.36
2023-05-15T06:09:23.833Z,1.53
2023-05-15T06:10:23.919Z,1.51
2023-05-15T06:11:25.602Z,1.76
2023-05-15T06:12:23.166Z,1.50
2023-05-15T06:13:24.049Z,1.71
2023-05-15T06:14:22.767Z,1.55
2023-05-15T06:15:22.858Z,1.40
2023-05-15T06:16:23.832Z,1.42
2023-05-15T06:17:22.840Z,1.39
2023-05-15T06:18:23.736Z,1.71
2023-05-15T06:19:22.967Z,1.71
2023-05-15T06:20:22.913Z,1.32
2023-05-15T06:21:23.916Z,1.87
2023-05-15T06:22:23.754Z,1.69
2023-05-15T06:23:24.484Z,1.57
2023-05-15T06:24:23.750Z,1.50
2023-05-15T06:25:22.735Z,1.43
2023-05-15T06:26:23.672Z,1.58
2023-05-15T06:27:23.676Z,1.95
2023-05-15T06:28:22.762Z,1.41
2023-05-15T06:29:23.787Z,1.61
2023-05-15T06:30:22.824Z,1.84
2023-05-15T06:31:22.752Z,1.61
2023-05-15T06:32:22.676Z,1.52
2023-05-15T06:33:22.860Z,1.50
2023-05-15T06:34:23.715Z,2.08
2023-05-15T06:35:23.641Z,2.05
2023-05-15T06:36:23.661Z,1.65
2023-05-15T06:37:23.622Z,1.80
2023-05-15T06:38:23.733Z,1.40
2023-05-15T06:39:23.665Z,1.91
2023-05-15T06:40:22.758Z,1.66
2023-05-15T06:41:22.653Z,2.14
2023-05-15T06:42:23.736Z,1.63
2023-05-15T06:43:23.704Z,1.73
2023-05-15T06:44:25.733Z,1.56
2023-05-15T06:45:24.066Z,1.49
2023-05-15T06:46:22.774Z,2.12
2023-05-15T06:47:22.829Z,1.95
2023-05-15T06:48:23.793Z,1.65
2023-05-15T06:49:22.794Z,2.03
2023-05-15T06:50:23.730Z,1.79
2023-05-15T06:51:23.843Z,1.87
2023-05-15T06:52:22.721Z,2.13
2023-05-15T06:53:22.718Z,1.93
2023-05-15T06:54:22.813Z,1.76
2023-05-15T06:55:23.871Z,1.83
2023-05-15T06:56:22.797Z,1.87
2023-05-15T06:57:22.660Z,1.77
2023-05-15T06:58:22.761Z,2.43
2023-05-15T06:59:22.689Z,2.35
2023-05-15T07:00:23.669Z,1.99
2023-05-15T07:01:23.884Z,1.73
2023-05-15T07:02:23.237Z,2.02
2023-05-15T07:03:22.617Z,2.13
2023-05-15T07:04:23.671Z,1.63
2023-05-15T07:05:23.984Z,1.90
2023-05-15T07:06:23.730Z,1.87
2023-05-15T07:07:23.873Z,1.39
2023-05-15T07:08:23.849Z,2.04
2023-05-15T07:09:23.857Z,2.34
2023-05-15T07:10:24.064Z,1.74
2023-05-15T07:11:23.879Z,1.45
2023-05-15T07:12:22.927Z,2.35
2023-05-15T07:13:23.965Z,2.04
2023-05-15T07:14:22.988Z,2.48
2023-05-15T07:15:23.992Z,2.03
2023-05-15T07:16:23.001Z,2.05
2023-05-15T07:17:23.216Z,1.97
2023-05-15T07:18:24.254Z,1.60
2023-05-15T07:19:24.213Z,2.07
2023-05-15T07:20:24.247Z,2.18
2023-05-15T07:21:24.138Z,1.84
2023-05-15T07:22:24.159Z,1.80
2023-05-15T07:23:24.238Z,1.54
2023-05-15T07:24:24.262Z,1.83
2023-05-15T07:25:23.565Z,2.46
2023-05-15T07:26:34.196Z,1.98
2023-05-15T07:27:24.348Z,1.73
2023-05-15T07:28:24.297Z,1.72
2023-05-15T07:29:23.286Z,2.07
2023-05-15T07:30:24.625Z,2.16
2023-05-15T07:31:23.468Z,1.77
2023-05-15T07:32:23.380Z,2.31
2023-05-15T07:33:24.282Z,1.80
2023-05-15T07:34:24.240Z,1.92
2023-05-15T07:35:24.340Z,1.78
2023-05-15T07:36:23.281Z,2.10
2023-05-15T07:37:24.245Z,2.54
2023-05-15T07:38:24.294Z,1.97
2023-05-15T07:39:24.314Z,1.72
2023-05-15T07:40:24.352Z,1.63
2023-05-15T07:41:24.464Z,2.02
2023-05-15T07:42:24.358Z,1.89
2023-05-15T07:43:23.261Z,1.83
2023-05-15T07:44:23.197Z,2.19
2023-05-15T07:45:24.418Z,1.79
2023-05-15T07:46:23.281Z,1.70
2023-05-15T07:47:23.236Z,2.14
2023-05-15T07:48:24.278Z,1.81
2023-05-15T07:49:24.188Z,1.44
2023-05-15T07:50:24.622Z,1.79
2023-05-15T07:51:23.332Z,1.95
2023-05-15T07:52:25.138Z,1.71
2023-05-15T07:53:24.358Z,2.38
2023-05-15T07:54:23.384Z,1.61
2023-05-15T07:55:24.668Z,1.85
2023-05-15T07:56:23.437Z,1.70
2023-05-15T07:57:23.467Z,2.07
2023-05-15T07:58:24.540Z,1.86
2023-05-15T07:59:24.505Z,1.68
2023-05-15T08:00:23.533Z,1.68
2023-05-15T08:01:24.600Z,1.62
2023-05-15T08:02:23.708Z,1.58
2023-05-15T08:03:24.670Z,1.67
2023-05-15T08:04:24.656Z,1.84
2023-05-15T08:05:24.982Z,2.00
2023-05-15T08:06:23.728Z,1.71
2023-05-15T08:07:24.788Z,1.75
2023-05-15T08:08:23.805Z,2.05
2023-05-15T08:09:24.896Z,1.74
2023-05-15T08:10:23.934Z,1.59
2023-05-15T08:11:23.945Z,1.89
2023-05-15T08:12:24.929Z,1.70
2023-05-15T08:13:24.960Z,1.51
2023-05-15T08:14:25.212Z,1.61
2023-05-15T08:15:25.395Z,1.70
2023-05-15T08:16:25.386Z,1.97
2023-05-15T08:17:25.066Z,1.75
2023-05-15T08:18:24.016Z,2.01
2023-05-15T08:19:25.070Z,1.98
2023-05-15T08:20:24.029Z,1.73
2023-05-15T08:21:24.058Z,1.79
2023-05-15T08:22:25.039Z,1.74
2023-05-15T08:23:25.068Z,1.75
2023-05-15T08:24:25.120Z,1.76
2023-05-15T08:25:25.268Z,2.12
2023-05-15T08:26:25.099Z,2.17
2023-05-15T08:27:25.100Z,1.73
2023-05-15T08:28:25.101Z,1.73
2023-05-15T08:29:25.116Z,1.65
2023-05-15T08:30:24.124Z,1.77
2023-05-15T08:31:25.207Z,1.89
2023-05-15T08:32:25.207Z,1.86
2023-05-15T08:33:25.157Z,1.76
2023-05-15T08:34:24.237Z,2.45
2023-05-15T08:35:25.436Z,1.32
2023-05-15T08:36:24.281Z,1.92
2023-05-15T08:37:25.256Z,1.69
2023-05-15T08:38:24.289Z,1.70
2023-05-15T08:39:25.277Z,1.76
2023-05-15T08:40:38.390Z,1.74
2023-05-15T08:41:32.914Z,1.49
2023-05-15T08:42:25.387Z,1.42
2023-05-15T08:43:25.337Z,1.93
2023-05-15T08:44:25.353Z,1.62
2023-05-15T08:45:25.573Z,2.06
2023-05-15T08:46:24.375Z,2.24
2023-05-15T08:47:24.286Z,1.88
2023-05-15T08:48:25.421Z,2.08
2023-05-15T08:49:25.279Z,1.66
2023-05-15T08:50:25.237Z,1.94
2023-05-15T08:51:24.254Z,3.00
2023-05-15T08:52:25.243Z,2.32
2023-05-15T08:53:25.252Z,2.26
2023-05-15T08:54:25.182Z,2.22
2023-05-15T08:55:25.478Z,1.87
2023-05-15T08:56:25.682Z,2.30
2023-05-15T08:57:25.272Z,1.98
2023-05-15T08:58:25.170Z,2.22
2023-05-15T08:59:24.168Z,2.27
2023-05-15T09:00:25.134Z,2.50
2023-05-15T09:01:25.188Z,2.18
2023-05-15T09:02:25.192Z,2.32
2023-05-15T09:03:24.460Z,2.35
2023-05-15T09:04:25.146Z,2.76
2023-05-15T09:05:25.410Z,1.91
2023-05-15T09:06:24.135Z,2.26
2023-05-15T09:07:24.093Z,2.10
2023-05-15T09:08:24.116Z,1.79
2023-05-15T09:09:25.077Z,1.90
2023-05-15T09:10:25.076Z,1.58
2023-05-15T09:11:25.156Z,1.72
2023-05-15T09:12:25.057Z,1.75
2023-05-15T09:13:25.056Z,1.70
2023-05-15T09:14:25.084Z,1.81
2023-05-15T09:15:25.520Z,1.68
2023-05-15T09:16:24.227Z,1.85
2023-05-15T09:17:25.251Z,1.70
2023-05-15T09:18:24.141Z,1.48
2023-05-15T09:19:26.223Z,1.57
2023-05-15T09:20:25.227Z,1.99
2023-05-15T09:21:25.656Z,1.91
2023-05-15T09:22:24.244Z,1.94
2023-05-15T09:23:25.601Z,1.57
2023-05-15T09:24:25.319Z,2.03
2023-05-15T09:25:25.700Z,1.76
2023-05-15T09:26:25.293Z,1.73
2023-05-15T09:27:25.346Z,1.70
2023-05-15T09:28:25.367Z,1.73
2023-05-15T09:29:25.406Z,1.89
2023-05-15T09:30:24.469Z,1.87
2023-05-15T09:31:25.515Z,1.69
2023-05-15T09:32:25.638Z,2.25
2023-05-15T09:33:24.596Z,1.78
2023-05-15T09:34:25.687Z,1.61
2023-05-15T09:35:27.168Z,2.05
2023-05-15T09:36:24.668Z,1.69
2023-05-15T09:37:25.816Z,1.54
2023-05-15T09:38:25.621Z,1.86
2023-05-15T09:39:25.823Z,1.91
2023-05-15T09:40:25.629Z,2.81
2023-05-15T09:41:25.700Z,1.91
2023-05-15T09:42:25.742Z,2.26
2023-05-15T09:43:25.629Z,2.26
2023-05-15T09:44:25.661Z,1.96
2023-05-15T09:45:24.812Z,1.45
2023-05-15T09:46:25.786Z,1.82
2023-05-15T09:47:24.726Z,1.77
2023-05-15T09:48:25.564Z,2.41
2023-05-15T09:49:25.964Z,2.34
2023-05-15T09:50:25.544Z,1.53
2023-05-15T09:51:25.687Z,2.20
2023-05-15T09:52:24.488Z,2.35
2023-05-15T09:53:24.529Z,2.24
2023-05-15T09:54:25.575Z,2.01
2023-05-15T09:55:25.783Z,2.32
2023-05-15T09:56:24.506Z,1.99
2023-05-15T09:57:24.575Z,1.64
2023-05-15T09:58:24.569Z,1.97
2023-05-15T09:59:25.597Z,1.47
2023-05-15T10:00:24.936Z,1.94
2023-05-15T10:01:25.682Z,1.87
2023-05-15T10:02:25.760Z,1.74
2023-05-15T10:03:25.745Z,1.65
2023-05-15T10:04:24.753Z,1.64
2023-05-15T10:05:41.613Z,1.68
2023-05-15T10:06:25.850Z,2.05
2023-05-15T10:07:25.814Z,2.00
2023-05-15T10:08:25.860Z,1.68
2023-05-15T10:09:24.853Z,2.36
2023-05-15T10:10:24.996Z,1.87
2023-05-15T10:11:25.786Z,1.67
2023-05-15T10:12:25.821Z,1.45
2023-05-15T10:13:24.755Z,1.69
2023-05-15T10:14:24.765Z,2.15
2023-05-15T10:15:25.763Z,1.66
2023-05-15T10:16:24.755Z,1.79
2023-05-15T10:17:25.722Z,1.97
2023-05-15T10:18:24.745Z,2.10
2023-05-15T10:19:25.758Z,2.25
2023-05-15T10:20:25.847Z,1.56
2023-05-15T10:21:25.781Z,2.15
2023-05-15T10:22:26.211Z,1.44
2023-05-15T10:23:25.670Z,1.67
2023-05-15T10:24:24.677Z,1.63
2023-05-15T10:25:26.712Z,1.61
2023-05-15T10:26:25.693Z,1.92
2023-05-15T10:27:25.624Z,1.41
2023-05-15T10:28:24.626Z,1.73
2023-05-15T10:29:25.642Z,1.85
2023-05-15T10:30:25.978Z,1.39
2023-05-15T10:31:24.669Z,1.57
2023-05-15T10:32:25.624Z,1.85
2023-05-15T10:33:24.568Z,2.22
2023-05-15T10:34:25.555Z,1.59
2023-05-15T10:35:24.605Z,1.49
2023-05-15T10:36:25.762Z,1.66
2023-05-15T10:37:25.547Z,1.09
2023-05-15T10:38:25.594Z,1.40
2023-05-15T10:39:25.606Z,1.55
2023-05-15T10:40:24.871Z,1.38
2023-05-15T10:41:24.763Z,1.11
2023-05-15T10:42:24.754Z,1.48
2023-05-15T10:43:25.795Z,1.30
2023-05-15T10:44:25.894Z,1.29
2023-05-15T10:45:25.850Z,2.83
2023-05-15T10:46:25.280Z,1.80
2023-05-15T10:47:25.899Z,2.00
2023-05-15T10:48:24.964Z,2.32
2023-05-15T10:49:25.902Z,1.48
2023-05-15T10:50:26.146Z,1.65
2023-05-15T10:51:24.955Z,1.12
2023-05-15T10:52:25.932Z,1.33
2023-05-15T10:53:24.953Z,1.12
2023-05-15T10:54:24.999Z,0.92
2023-05-15T10:55:26.013Z,1.59
2023-05-15T10:56:26.102Z,0.99
2023-05-15T10:57:26.042Z,0.51
2023-05-15T10:58:26.068Z,1.11
2023-05-15T10:59:26.105Z,0.88
2023-05-15T11:00:26.369Z,1.23
2023-05-15T11:01:26.332Z,0.88
2023-05-15T11:02:26.215Z,1.13
2023-05-15T11:03:27.164Z,0.86
2023-05-15T11:04:25.272Z,1.23
2023-05-15T11:05:25.197Z,1.14
2023-05-15T11:06:25.195Z,0.92
2023-05-15T11:07:25.204Z,1.19
2023-05-15T11:08:26.254Z,1.97
2023-05-15T11:09:27.628Z,1.21
2023-05-15T11:10:26.343Z,1.64
2023-05-15T11:11:26.178Z,1.35
2023-05-15T11:12:26.173Z,1.39
2023-05-15T11:13:26.152Z,1.17
2023-05-15T11:14:25.216Z,1.60
2023-05-15T11:15:26.147Z,1.10
2023-05-15T11:16:26.360Z,2.39
2023-05-15T11:17:26.240Z,1.40
2023-05-15T11:18:26.173Z,1.02
2023-05-15T11:19:26.089Z,1.37
2023-05-15T11:20:26.240Z,1.18
2023-05-15T11:21:25.171Z,1.21
2023-05-15T11:22:26.097Z,1.19
2023-05-15T11:23:26.111Z,1.03
2023-05-15T11:24:26.070Z,0.95
2023-05-15T11:25:25.084Z,0.95
2023-05-15T11:26:25.137Z,1.18
2023-05-15T11:27:25.052Z,1.29
2023-05-15T11:28:25.016Z,1.25
2023-05-15T11:29:26.027Z,1.15
2023-05-15T11:30:25.256Z,1.31
2023-05-15T11:31:26.080Z,1.26
2023-05-15T11:32:25.043Z,0.94
2023-05-15T11:33:24.997Z,1.16
2023-05-15T11:34:25.975Z,1.22
2023-05-15T11:35:25.980Z,1.69
2023-05-15T11:36:26.000Z,1.21
2023-05-15T11:37:26.176Z,1.75
2023-05-15T11:38:25.952Z,1.41
2023-05-15T11:39:25.999Z,1.61
2023-05-15T11:40:26.113Z,1.49
2023-05-15T11:41:25.934Z,1.43
2023-05-15T11:42:25.956Z,1.43
2023-05-15T11:43:25.927Z,1.27
2023-05-15T11:44:25.930Z,1.52
2023-05-15T11:45:24.937Z,1.76
2023-05-15T11:46:24.979Z,1.13
2023-05-15T11:47:25.014Z,1.35
2023-05-15T11:48:26.041Z,1.85
2023-05-15T11:49:26.075Z,1.28
2023-05-15T11:50:25.401Z,1.12
2023-05-15T11:51:26.171Z,1.35
2023-05-15T11:52:26.229Z,1.91
2023-05-15T11:53:26.258Z,1.35
2023-05-15T11:54:25.316Z,1.30
2023-05-15T11:55:25.386Z,1.01
2023-05-15T11:56:25.435Z,0.98
2023-05-15T11:57:26.453Z,1.34
2023-05-15T11:58:26.572Z,1.31
2023-05-15T11:59:25.722Z,1.00
2023-05-15T12:00:26.804Z,1.31
2023-05-15T12:01:25.589Z,0.85
2023-05-15T12:02:26.636Z,1.26
2023-05-15T12:03:26.723Z,1.24
2023-05-15T12:04:25.810Z,1.22
2023-05-15T12:05:26.701Z,0.96
2023-05-15T12:06:26.697Z,1.22
2023-05-15T12:07:26.756Z,1.65
2023-05-15T12:08:25.751Z,1.02
2023-05-15T12:09:25.787Z,1.20
2023-05-15T12:10:26.981Z,1.25
2023-05-15T12:11:26.826Z,1.33
2023-05-15T12:12:26.850Z,1.17
2023-05-15T12:13:25.867Z,1.20
2023-05-15T12:14:25.908Z,1.43
2023-05-15T12:15:25.952Z,1.33
2023-05-15T12:16:27.090Z,1.51
2023-05-15T12:17:26.030Z,1.45
2023-05-15T12:18:25.980Z,1.36
2023-05-15T12:19:25.995Z,1.39
2023-05-15T12:20:26.241Z,2.52
2023-05-15T12:21:26.099Z,1.29
2023-05-15T12:22:27.122Z,1.24
2023-05-15T12:23:27.168Z,1.29
2023-05-15T12:24:27.270Z,2.20
2023-05-15T12:25:26.309Z,1.68
2023-05-15T12:26:26.239Z,1.69
2023-05-15T12:27:27.295Z,1.62
2023-05-15T12:28:27.482Z,1.87
2023-05-15T12:29:27.364Z,1.93
2023-05-15T12:30:26.675Z,1.69
2023-05-15T12:31:27.494Z,2.05
2023-05-15T12:32:26.493Z,1.71
2023-05-15T12:33:26.498Z,1.73
2023-05-15T12:34:26.494Z,1.61
2023-05-15T12:35:27.527Z,2.42
2023-05-15T12:36:27.584Z,1.78
2023-05-15T12:37:27.642Z,1.55
2023-05-15T12:38:27.712Z,1.52
2023-05-15T12:39:26.681Z,1.78
2023-05-15T12:40:27.876Z,1.45
2023-05-15T12:41:26.740Z,2.11
2023-05-15T12:42:27.760Z,2.25
2023-05-15T12:43:26.734Z,2.10
2023-05-15T12:44:27.782Z,2.01
2023-05-15T12:45:27.819Z,2.45
2023-05-15T12:46:27.870Z,1.88
2023-05-15T12:47:26.866Z,2.29
2023-05-15T12:48:26.895Z,2.14
2023-05-15T12:49:26.908Z,2.20
2023-05-15T12:50:27.217Z,2.08
2023-05-15T12:51:26.966Z,2.20
2023-05-15T12:52:28.150Z,2.30
2023-05-15T12:53:28.218Z,2.47
2023-05-15T12:54:27.057Z,2.64
2023-05-15T12:55:27.132Z,2.47
2023-05-15T12:56:27.614Z,2.49
2023-05-15T12:57:27.446Z,2.84
2023-05-15T12:58:27.243Z,2.17
2023-05-15T12:59:28.397Z,2.31
2023-05-15T13:00:28.355Z,2.23
2023-05-15T13:01:27.317Z,2.59
2023-05-15T13:02:28.346Z,2.66
2023-05-15T13:03:28.361Z,2.52
2023-05-15T13:04:28.397Z,2.17
2023-05-15T13:05:28.425Z,2.44
2023-05-15T13:06:38.312Z,2.01
2023-05-15T13:07:28.450Z,2.47
2023-05-15T13:08:27.440Z,2.40
2023-05-15T13:09:27.435Z,2.48
2023-05-15T13:10:28.573Z,2.72
2023-05-15T13:11:28.371Z,2.84
2023-05-15T13:12:27.380Z,2.65
2023-05-15T13:13:28.436Z,2.31
2023-05-15T13:14:27.383Z,2.57
2023-05-15T13:15:27.365Z,2.90
2023-05-15T13:16:28.457Z,2.23
2023-05-15T13:17:28.395Z,2.72
2023-05-15T13:18:28.341Z,2.54